Time;durP1;ratioP1;P1;durP2;ratioP2;P2;SDS_P1;SDS_P2;PMS_P1;PMS_P2;Temp;Humidity;BMP_temperature;BMP_pressure;BME280_temperature;BME280_humidity;BME280_pressure;Samples;Min_cycle;Max_cycle;Signal;HPM_P1;HPM_P2
2021/10/25 00:01:16;;;;;;;9.80;5.23;;;;;;;1.82;100.00;101595.56;4946360;28;20054;-79
2021/10/25 00:03:44;;;;;;;8.47;5.10;;;;;;;1.85;100.00;101598.25;4950646;28;20462;-79
2021/10/25 00:06:11;;;;;;;7.87;4.67;;;;;;;1.87;100.00;101591.38;4935489;28;20511;-82
2021/10/25 00:08:38;;;;;;;9.67;5.20;;;;;;;1.84;100.00;101584.34;4919340;28;20051;-79
2021/10/25 00:11:05;;;;;;;10.83;5.97;;;;;;;1.83;100.00;101582.56;4923194;28;20462;-79
2021/10/25 00:13:31;;;;;;;8.43;4.70;;;;;;;1.80;100.00;101587.72;4937818;28;20466;-79
2021/10/25 00:15:58;;;;;;;7.03;4.60;;;;;;;1.76;100.00;101584.94;4934281;28;20070;-79
2021/10/25 00:18:25;;;;;;;9.23;5.47;;;;;;;1.74;100.00;101581.44;4952243;28;20097;-79
2021/10/25 00:20:51;;;;;;;8.80;4.70;;;;;;;1.69;100.00;101579.59;4938899;28;20046;-79
2021/10/25 00:23:18;;;;;;;7.97;4.83;;;;;;;1.73;100.00;101585.75;4937154;28;20038;-79
2021/10/25 00:25:45;;;;;;;8.17;4.47;;;;;;;1.73;100.00;101585.75;4938222;28;20051;-79
2021/10/25 00:28:11;;;;;;;9.37;4.90;;;;;;;1.72;100.00;101590.94;4936786;28;20050;-79
2021/10/25 00:30:38;;;;;;;10.13;5.30;;;;;;;1.71;100.00;101583.94;4952802;28;20510;-79
2021/10/25 00:33:05;;;;;;;7.70;4.60;;;;;;;1.71;100.00;101583.94;4949683;28;20554;-79
2021/10/25 00:35:31;;;;;;;7.87;4.77;;;;;;;1.67;100.00;101581.22;4918862;28;20039;-79
2021/10/25 00:37:58;;;;;;;7.83;4.87;;;;;;;1.63;100.00;101583.72;4953958;28;20042;-79
2021/10/25 00:40:25;;;;;;;6.97;4.37;;;;;;;1.67;100.00;101583.84;4951747;28;20105;-79
2021/10/25 00:42:52;;;;;;;8.73;4.70;;;;;;;1.62;100.00;101585.44;4935187;29;20047;-79
2021/10/25 00:45:18;;;;;;;7.50;4.67;;;;;;;1.66;100.00;101589.00;4921001;28;20589;-78
2021/10/25 00:47:45;;;;;;;7.47;4.97;;;;;;;1.63;100.00;101584.59;4954943;28;20051;-79
2021/10/25 00:50:12;;;;;;;8.77;4.90;;;;;;;1.73;100.00;101590.09;4953195;28;20450;-76
2021/10/25 00:52:40;;;;;;;8.53;4.70;;;;;;;1.65;100.00;101584.63;5014273;23;20050;-81
2021/10/25 00:55:08;;;;;;;5.70;4.77;;;;;;;1.57;100.00;101576.59;4946529;28;20034;-79
2021/10/25 00:57:35;;;;;;;10.10;4.67;;;;;;;1.66;100.00;101576.88;4938297;28;20039;-82
2021/10/25 01:00:05;;;;;;;7.60;4.17;;;;;;;1.54;100.00;101576.50;4953429;28;20101;-79
2021/10/25 01:02:31;;;;;;;11.30;5.07;;;;;;;1.52;100.00;101572.97;4937757;28;20126;-80
2021/10/25 01:04:58;;;;;;;8.73;4.57;;;;;;;1.49;100.00;101569.38;4937495;28;20051;-79
2021/10/25 01:07:26;;;;;;;7.50;4.03;;;;;;;1.45;100.00;101559.72;4954419;28;20100;-82
2021/10/25 01:09:54;;;;;;;7.20;4.80;;;;;;;1.45;100.00;101565.81;4931310;28;20051;-80
2021/10/25 01:12:21;;;;;;;9.33;5.23;;;;;;;1.50;100.00;101556.41;4970523;28;20650;-79
2021/10/25 01:14:48;;;;;;;9.50;4.63;;;;;;;1.43;100.00;101562.28;4953597;28;20062;-79
2021/10/25 01:17:14;;;;;;;6.80;4.83;;;;;;;1.44;100.00;101551.03;4955000;28;20454;-79
2021/10/25 01:19:41;;;;;;;10.57;5.40;;;;;;;1.41;100.00;101551.78;4934174;28;20270;-79
2021/10/25 01:22:07;;;;;;;7.87;5.20;;;;;;;1.39;100.00;101547.38;4946333;28;20051;-79
2021/10/25 01:24:34;;;;;;;9.17;5.00;;;;;;;1.28;100.00;101546.19;4936438;28;20047;-79
2021/10/25 01:27:01;;;;;;;5.80;4.20;;;;;;;1.30;100.00;101547.97;4951843;28;21064;-79
2021/10/25 01:29:27;;;;;;;10.17;5.10;;;;;;;1.28;100.00;101547.06;4929433;28;20129;-81
2021/10/25 01:31:54;;;;;;;6.97;4.70;;;;;;;1.30;100.00;101547.97;4938979;28;20042;-78
2021/10/25 01:34:20;;;;;;;7.33;4.60;;;;;;;1.28;100.00;101548.78;4951500;28;20510;-79
2021/10/25 01:36:47;;;;;;;8.57;5.37;;;;;;;1.37;100.00;101541.25;4947225;29;20682;-79
2021/10/25 01:39:14;;;;;;;7.83;4.87;;;;;;;1.21;100.00;101539.88;4929247;28;20515;-80
2021/10/25 01:41:40;;;;;;;9.10;4.50;;;;;;;1.22;100.00;101545.97;4934028;29;20510;-79
2021/10/25 01:44:10;;;;;;;7.97;4.57;;;;;;;1.21;100.00;101541.59;4934380;28;20042;-79
2021/10/25 01:46:36;;;;;;;9.10;5.77;;;;;;;1.25;100.00;101535.66;4946732;28;20038;-78
2021/10/25 01:49:05;;;;;;;8.03;4.73;;;;;;;1.21;100.00;101520.78;4953731;28;20051;-79
2021/10/25 01:51:32;;;;;;;8.67;4.40;;;;;;;1.30;100.00;101524.56;4938157;28;20043;-80
2021/10/25 01:53:59;;;;;;;8.20;4.53;;;;;;;1.16;100.00;101520.63;4948639;28;20508;-79
2021/10/25 01:56:26;;;;;;;7.40;4.40;;;;;;;1.16;100.00;101531.03;4949523;28;20043;-79
2021/10/25 01:58:53;;;;;;;6.03;4.00;;;;;;;1.16;100.00;101520.63;4936525;28;20097;-81
2021/10/25 02:01:21;;;;;;;5.73;4.23;;;;;;;1.19;100.00;101518.13;4978506;28;20094;-79
2021/10/25 02:03:48;;;;;;;10.00;5.17;;;;;;;1.18;100.00;101518.97;4935419;28;20478;-81
2021/10/25 02:06:15;;;;;;;8.90;4.57;;;;;;;1.10;100.00;101510.94;4936551;28;20118;-79
2021/10/25 02:08:42;;;;;;;8.07;4.10;;;;;;;1.18;100.00;101512.84;4952384;28;20533;-79
2021/10/25 02:11:08;;;;;;;7.47;4.43;;;;;;;1.10;100.00;101505.72;4922918;28;20038;-82
2021/10/25 02:13:35;;;;;;;8.83;4.67;;;;;;;1.04;100.00;101509.84;4911293;29;20707;-81
2021/10/25 02:16:02;;;;;;;7.40;4.00;;;;;;;1.02;100.00;101502.00;4954176;28;20069;-79
2021/10/25 02:18:29;;;;;;;7.33;4.33;;;;;;;1.03;100.00;101501.16;4953306;28;20039;-81
2021/10/25 02:20:56;;;;;;;9.17;4.30;;;;;;;0.97;100.00;101497.47;4943696;28;20047;-81
2021/10/25 02:23:23;;;;;;;8.00;4.67;;;;;;;1.00;100.00;101503.63;4941327;28;20379;-79
2021/10/25 02:25:51;;;;;;;8.87;4.93;;;;;;;0.91;100.00;101497.25;4951634;28;20107;-81
2021/10/25 02:28:18;;;;;;;8.63;4.30;;;;;;;0.92;100.00;101489.50;4939621;28;20046;-80
2021/10/25 02:30:45;;;;;;;9.40;4.80;;;;;;;0.86;100.00;101491.94;4925829;28;20051;-79
2021/10/25 02:33:11;;;;;;;8.80;4.93;;;;;;;0.87;100.00;101496.28;4940738;28;20073;-80
2021/10/25 02:35:39;;;;;;;7.00;4.27;;;;;;;0.88;100.00;101499.78;4941480;28;20042;-79
2021/10/25 02:38:05;;;;;;;8.10;4.47;;;;;;;0.81;100.00;101494.38;4962110;28;20043;-82
2021/10/25 02:40:32;;;;;;;9.27;5.80;;;;;;;0.82;100.00;101490.94;4955965;28;20042;-80
2021/10/25 02:43:00;;;;;;;13.83;7.10;;;;;;;0.83;100.00;101489.22;4940959;28;20265;-80
2021/10/25 02:45:27;;;;;;;14.50;7.40;;;;;;;0.83;100.00;101481.41;4924292;28;20452;-80
2021/10/25 02:47:54;;;;;;;11.23;6.47;;;;;;;0.86;100.00;101483.25;4940926;28;20101;-82
2021/10/25 02:50:21;;;;;;;7.83;4.80;;;;;;;0.78;100.00;101483.88;4940196;28;20050;-79
2021/10/25 02:52:48;;;;;;;9.97;4.30;;;;;;;0.78;100.00;101483.00;4925090;28;20145;-82
2021/10/25 02:55:14;;;;;;;5.97;3.90;;;;;;;0.71;100.00;101483.63;4936478;29;20094;-80
2021/10/25 02:57:42;;;;;;;11.53;5.03;;;;;;;0.65;100.00;101468.69;4942294;29;20047;-79
2021/10/25 03:00:11;;;;;;;7.17;4.27;;;;;;;0.67;100.00;101472.22;4941429;28;20043;-79
2021/10/25 03:02:38;;;;;;;6.83;4.27;;;;;;;0.63;100.00;101470.38;4959573;28;20043;-82
2021/10/25 03:05:06;;;;;;;5.80;3.97;;;;;;;0.60;100.00;101466.81;4944881;28;20050;-79
2021/10/25 03:07:33;;;;;;;6.17;3.57;;;;;;;0.61;100.00;101465.97;4937194;29;20446;-79
2021/10/25 03:10:01;;;;;;;5.87;3.77;;;;;;;0.59;100.00;101465.00;4928484;29;20058;-80
2021/10/25 03:12:27;;;;;;;5.40;3.80;;;;;;;0.50;100.00;101460.38;4945883;28;20462;-80
2021/10/25 03:14:54;;;;;;;6.03;4.00;;;;;;;0.50;100.00;101466.47;4943330;28;20043;-81
2021/10/25 03:17:21;;;;;;;8.23;4.03;;;;;;;0.51;100.00;101468.25;4944797;28;20134;-79
2021/10/25 03:19:48;;;;;;;5.47;4.00;;;;;;;0.52;100.00;101471.75;4951559;29;20043;-79
2021/10/25 03:22:14;;;;;;;7.23;4.80;;;;;;;0.48;100.00;101465.53;4913059;28;20043;-79
2021/10/25 03:24:43;;;;;;;7.93;4.50;;;;;;;0.47;100.00;101460.31;4926452;29;20051;-79
2021/10/25 03:27:09;;;;;;;9.53;4.73;;;;;;;0.41;100.00;101462.69;4927150;28;20059;-79
2021/10/25 03:29:36;;;;;;;8.17;4.27;;;;;;;0.31;100.00;101458.03;4958051;29;20106;-79
2021/10/25 03:32:03;;;;;;;7.57;4.40;;;;;;;0.30;100.00;101462.34;4937923;29;20537;-79
2021/10/25 03:34:30;;;;;;;7.33;4.00;;;;;;;0.36;100.00;101461.66;4926264;29;20054;-79
2021/10/25 03:36:57;;;;;;;6.70;4.20;;;;;;;0.25;100.00;101453.47;4927542;28;20054;-80
2021/10/25 03:39:26;;;;;;;12.10;6.23;;;;;;;0.35;100.00;101458.19;4946017;28;20049;-79
2021/10/25 03:41:54;;;;;;;8.93;5.30;;;;;;;0.25;100.00;101457.00;4930637;28;20050;-78
2021/10/25 03:44:27;;;;;;;9.43;4.73;;;;;;;0.20;100.00;101460.25;4979471;28;20506;-79
2021/10/25 03:47:15;;;;;;;8.80;4.43;;;;;;;0.29;100.00;101452.78;4946557;28;20074;-79
2021/10/25 03:49:49;;;;;;;8.23;4.37;;;;;;;0.27;100.00;101457.94;4966713;28;20067;-79
2021/10/25 03:52:30;;;;;;;7.85;4.45;;;;;;;0.31;100.00;101458.03;4960579;28;20338;-79
2021/10/25 03:55:12;;;;;;;8.13;5.20;;;;;;;0.19;100.00;101451.59;4976662;28;20039;-79
2021/10/25 04:25:23;;;;;;;9.57;5.77;;;;;;;0.12;100.00;101431.41;4950868;28;20061;-79
2021/10/25 04:27:44;;;;;;;10.27;5.03;;;;;;;0.11;100.00;101433.97;4939712;28;20425;-79
2021/10/25 04:30:04;;;;;;;9.03;5.77;;;;;;;0.08;100.00;101431.25;4965430;28;20129;-79
2021/10/25 04:32:32;;;;;;;;;;;;;;;0.11;100.00;101439.16;4944295;29;20067;-79
2021/10/25 04:34:59;;;;;;;8.73;5.50;;;;;;;0.08;100.00;101431.25;4935277;28;19922;-79
2021/10/25 04:37:26;;;;;;;10.33;5.27;;;;;;;0.07;100.00;101430.34;4939104;29;20044;-80
2021/10/25 04:39:52;;;;;;;8.77;5.17;;;;;;;0.10;100.00;101432.19;4968048;28;20061;-80
2021/10/25 04:42:20;;;;;;;8.40;4.67;;;;;;;0.06;100.00;101420.81;4940428;29;20217;-79
2021/10/25 04:44:48;;;;;;;7.73;4.90;;;;;;;0.06;100.00;101422.53;4923590;29;20043;-79
2021/10/25 04:47:15;;;;;;;11.70;5.57;;;;;;;0.06;100.00;101415.59;4959951;28;20049;-80
2021/10/25 04:49:46;;;;;;;9.07;4.90;;;;;;;0.03;100.00;101425.03;4938556;28;20121;-79
2021/10/25 04:52:13;;;;;;;9.03;4.90;;;;;;;0.01;100.00;101421.50;4975478;28;20043;-79
2021/10/25 04:54:40;;;;;;;8.63;5.20;;;;;;;0.01;100.00;101421.50;4937274;28;20038;-79
2021/10/25 04:57:07;;;;;;;8.77;5.20;;;;;;;0.03;100.00;101414.63;4954970;29;20395;-79
2021/10/25 04:59:33;;;;;;;8.47;4.83;;;;;;;0.02;100.00;101421.53;4931296;28;20490;-79
2021/10/25 05:02:00;;;;;;;8.50;4.87;;;;;;;0.03;100.00;101412.03;4959408;28;20821;-79
2021/10/25 05:04:28;;;;;;;9.77;5.17;;;;;;;-0.03;100.00;101415.28;4953624;29;20047;-79
2021/10/25 05:06:54;;;;;;;9.03;5.00;;;;;;;0.01;100.00;101418.91;4938351;29;20807;-80
2021/10/25 05:09:21;;;;;;;9.70;5.30;;;;;;;-0.02;100.00;101409.25;4956310;29;20445;-79
2021/10/25 05:11:48;;;;;;;9.57;5.13;;;;;;;-0.05;100.00;101412.66;4950943;28;20047;-79
2021/10/25 05:14:15;;;;;;;9.47;5.37;;;;;;;-0.06;100.00;101410.88;4954043;29;20039;-79
2021/10/25 05:16:43;;;;;;;8.77;5.17;;;;;;;-0.07;100.00;101408.25;4925612;28;20038;-79
2021/10/25 05:19:10;;;;;;;9.87;5.23;;;;;;;0.03;100.00;101388.66;4958399;28;20066;-79
2021/10/25 05:21:37;;;;;;;11.83;5.77;;;;;;;-0.05;100.00;101399.66;4944480;28;20043;-79
2021/10/25 05:24:04;;;;;;;8.43;5.10;;;;;;;-0.09;100.00;101402.97;4927252;28;20050;-79
2021/10/25 05:26:31;;;;;;;7.73;4.80;;;;;;;-0.11;100.00;101399.44;4920790;29;20086;-80
2021/10/25 05:28:58;;;;;;;7.07;4.33;;;;;;;-0.14;100.00;101394.16;4932336;28;20066;-79
2021/10/25 05:31:25;;;;;;;7.80;4.37;;;;;;;-0.15;100.00;101395.00;4941349;28;20055;-79
2021/10/25 05:33:52;;;;;;;7.40;4.87;;;;;;;-0.11;100.00;101398.56;4911009;28;20176;-79
2021/10/25 05:36:19;;;;;;;7.07;4.33;;;;;;;-0.12;100.00;101399.41;4959824;28;20226;-79
2021/10/25 05:38:46;;;;;;;7.03;4.27;;;;;;;-0.18;100.00;101394.88;4974259;28;20415;-79
2021/10/25 05:41:13;;;;;;;8.73;4.83;;;;;;;-0.12;100.00;101402.88;4943683;28;20441;-79
2021/10/25 05:43:41;;;;;;;6.97;4.20;;;;;;;-0.17;100.00;101401.84;4958178;28;20496;-80
2021/10/25 05:46:08;;;;;;;9.27;4.87;;;;;;;-0.24;100.00;101406.78;4928087;28;20042;-79
2021/10/25 05:48:35;;;;;;;6.97;4.80;;;;;;;-0.28;100.00;101406.66;4927649;28;20050;-79
2021/10/25 05:51:02;;;;;;;8.80;4.90;;;;;;;-0.24;100.00;101399.88;4947661;28;20053;-79
2021/10/25 05:53:29;;;;;;;7.33;4.93;;;;;;;-0.26;100.00;101398.91;4946223;28;20039;-79
2021/10/25 05:55:57;;;;;;;8.90;5.73;;;;;;;-0.19;100.00;101406.09;4947435;28;20046;-79
2021/10/25 05:58:23;;;;;;;8.27;4.30;;;;;;;-0.18;100.00;101413.03;4969820;28;20065;-79
2021/10/25 06:00:57;;;;;;;8.80;4.83;;;;;;;-0.26;100.00;101411.00;4947501;28;20074;-79
2021/10/25 06:03:26;;;;;;;7.40;5.10;;;;;;;-0.23;100.00;101406.81;4961763;28;20047;-79
2021/10/25 06:05:52;;;;;;;10.10;5.03;;;;;;;-0.22;100.00;101400.78;4943000;28;20051;-78
2021/10/25 06:08:19;;;;;;;8.73;5.30;;;;;;;-0.23;100.00;101406.81;4960213;28;20051;-79
2021/10/25 06:10:47;;;;;;;9.70;5.50;;;;;;;-0.26;100.00;101411.88;4955665;28;20056;-79
2021/10/25 06:13:28;;;;;;;6.80;5.47;;;;;;;-0.20;100.00;101400.84;4945280;28;20105;-79
2021/10/25 06:16:03;;;;;;;12.10;5.70;;;;;;;-0.22;100.00;101402.50;4948878;28;20058;-78
2021/10/25 06:18:30;;;;;;;10.70;6.10;;;;;;;-0.18;100.00;101399.19;4977829;28;20066;-79
2021/10/25 06:20:57;;;;;;;9.83;4.93;;;;;;;-0.21;100.00;101394.78;4947913;28;20051;-79
2021/10/25 06:23:24;;;;;;;9.70;5.00;;;;;;;-0.23;100.00;101395.56;4933140;28;20034;-79
2021/10/25 06:25:51;;;;;;;8.10;5.73;;;;;;;-0.24;100.00;101389.47;4958955;29;20055;-79
2021/10/25 06:28:25;;;;;;;8.40;4.97;;;;;;;-0.17;100.00;101390.56;4931809;29;20039;-79
2021/10/25 06:31:08;;;;;;;8.18;4.35;;;;;;;-0.22;100.00;101393.00;4928077;29;20114;-79
2021/10/25 06:33:43;;;;;;;7.37;4.40;;;;;;;-0.20;100.00;101396.53;4950263;28;20062;-79
2021/10/25 06:36:11;;;;;;;7.80;3.70;;;;;;;-0.23;100.00;101391.25;4953930;29;20094;-80
2021/10/25 06:38:43;;;;;;;6.97;4.27;;;;;;;-0.18;100.00;101399.19;4941252;28;20501;-79
2021/10/25 06:41:10;;;;;;;7.00;4.50;;;;;;;-0.21;100.00;101394.78;4968280;28;20050;-79
2021/10/25 06:43:37;;;;;;;10.00;4.90;;;;;;;-0.18;100.00;101401.78;4979855;28;20509;-79
2021/10/25 06:46:06;;;;;;;8.77;4.20;;;;;;;-0.22;100.00;101402.50;4964998;28;20070;-80
2021/10/25 06:48:33;;;;;;;7.87;4.77;;;;;;;-0.16;100.00;101400.13;4973907;28;20058;-79
2021/10/25 06:50:59;;;;;;;9.20;4.70;;;;;;;-0.15;100.00;101397.59;4929991;28;20050;-79
2021/10/25 06:53:26;;;;;;;8.37;4.63;;;;;;;-0.09;100.00;101392.56;4959645;28;20046;-79
2021/10/25 06:55:53;;;;;;;7.20;4.63;;;;;;;-0.09;100.00;101392.56;4977997;28;20051;-79
2021/10/25 06:58:21;;;;;;;6.90;4.17;;;;;;;-0.05;100.00;101393.59;4928834;29;20418;-79
2021/10/25 07:00:49;;;;;;;5.73;4.50;;;;;;;0.01;100.00;101392.94;4956642;28;20047;-79
2021/10/25 07:03:16;;;;;;;6.53;3.87;;;;;;;0.01;100.00;101392.94;4956306;29;20043;-80
2021/10/25 07:05:43;;;;;;;9.30;5.07;;;;;;;0.14;100.00;101401.16;4957743;28;20122;-79
2021/10/25 07:08:11;;;;;;;10.20;5.20;;;;;;;0.12;100.00;101397.63;4941246;29;20638;-79
2021/10/25 07:10:38;;;;;;;8.57;4.83;;;;;;;0.13;100.00;101395.91;4940294;28;20051;-79
2021/10/25 07:13:21;;;;;;;9.20;5.63;;;;;;;0.23;100.00;101403.19;4940537;29;20094;-79
2021/10/25 07:15:59;;;;;;;8.40;5.50;;;;;;;0.25;100.00;101410.22;4951232;28;20039;-79
2021/10/25 07:18:41;;;;;;;8.27;5.07;;;;;;;0.24;100.00;101407.53;4959582;28;20043;-80
2021/10/25 07:59:59;;;;;;;12.43;6.90;;;;;;;1.76;100.00;101394.78;4937590;29;20801;-81
2021/10/25 08:03:01;;;;;;;12.90;7.27;;;;;;;1.84;100.00;101390.66;4936397;29;20529;-80
2021/10/25 08:05:40;;;;;;;12.50;6.83;;;;;;;1.94;100.00;101380.53;4939172;29;20122;-79
2021/10/25 08:10:39;;;;;;;13.20;7.30;;;;;;;2.21;100.00;101387.28;4931937;29;20052;-80
2021/10/25 08:13:14;;;;;;;9.33;6.80;;;;;;;2.38;100.00;101386.00;4915831;29;20075;-80
2021/10/25 08:15:44;;;;;;;14.20;7.33;;;;;;;2.67;100.00;101375.34;4939017;28;20082;-81
2021/10/25 08:20:58;;;;;;;13.20;6.80;;;;;;;2.85;100.00;101375.75;4917743;29;20047;-80
2021/10/25 08:23:25;;;;;;;13.70;7.37;;;;;;;3.07;100.00;101374.50;4915389;29;20044;-81
2021/10/25 08:25:51;;;;;;;12.30;7.53;;;;;;;3.15;100.00;101372.94;4888712;29;20107;-80
2021/10/25 08:28:18;;;;;;;11.73;7.17;;;;;;;3.24;100.00;101370.53;4915444;29;20071;-81
2021/10/25 08:30:45;;;;;;;11.33;6.13;;;;;;;3.34;100.00;101359.41;4885640;29;20051;-81
2021/10/25 08:35:56;;;;;;;10.47;6.33;;;;;;;3.46;100.00;101365.75;4918532;29;20048;-82
2021/10/25 08:41:09;;;;;;;12.17;6.50;;;;;;;3.82;100.00;101374.28;4922074;29;20051;-81
2021/10/25 08:43:37;;;;;;;13.00;6.90;;;;;;;4.02;100.00;101365.91;4901778;29;20055;-82
2021/10/25 08:46:07;;;;;;;12.47;6.53;;;;;;;4.12;100.00;101368.72;4904957;29;20055;-86
2021/10/25 08:48:34;;;;;;;8.63;5.80;;;;;;;4.32;100.00;101363.81;4899768;29;21088;-81
2021/10/25 08:51:02;;;;;;;11.10;6.33;;;;;;;4.41;100.00;101355.22;4906532;29;20130;-82
2021/10/25 08:53:28;;;;;;;8.47;6.17;;;;;;;4.49;100.00;101353.63;4902446;29;20517;-81
2021/10/25 08:55:55;;;;;;;8.10;5.53;;;;;;;4.54;100.00;101346.72;4908998;29;20054;-81
2021/10/25 08:58:22;;;;;;;10.70;5.83;;;;;;;4.74;100.00;101350.50;4917926;29;20063;-81
2021/10/25 09:00:52;;;;;;;10.93;6.00;;;;;;;4.84;100.00;101351.50;4948624;29;20048;-82
2021/10/25 09:03:20;;;;;;;10.33;6.90;;;;;;;5.04;100.00;101350.06;4913649;29;20463;-82
2021/10/25 09:05:53;;;;;;;12.90;5.77;;;;;;;5.28;100.00;101336.34;4901094;29;20514;-82
2021/10/25 09:08:20;;;;;;;9.55;6.85;;;;;;;5.49;100.00;101333.13;4931264;29;20050;-81
2021/10/25 09:10:48;;;;;;;8.30;7.10;;;;;;;5.73;97.53;101322.00;4917203;29;20521;-81
2021/10/25 09:13:26;;;;;;;11.17;7.03;;;;;;;5.99;95.36;101309.19;4931085;29;20054;-82
2021/10/25 09:15:55;;;;;;;12.37;5.93;;;;;;;6.17;93.63;101301.44;4922882;29;20050;-81
2021/10/25 09:18:24;;;;;;;9.93;5.93;;;;;;;6.42;91.95;101305.13;4898410;29;20044;-81
2021/10/25 09:20:51;;;;;;;8.27;5.30;;;;;;;6.62;94.05;101307.00;4930268;29;20051;-82
2021/10/25 09:23:23;;;;;;;8.07;5.83;;;;;;;6.83;87.00;101322.00;4932701;29;20573;-82
2021/10/25 09:25:54;;;;;;;12.53;6.13;;;;;;;6.92;87.49;101325.56;4913205;29;20039;-81
2021/10/25 09:28:27;;;;;;;7.03;5.43;;;;;;;7.00;87.73;101337.00;4901920;29;20051;-81
2021/10/25 09:31:02;;;;;;;12.00;5.93;;;;;;;7.27;84.95;101323.06;4904120;29;20047;-81
2021/10/25 09:33:35;;;;;;;7.93;5.70;;;;;;;7.28;83.95;101322.19;4917792;29;20114;-81
2021/10/25 09:36:08;;;;;;;10.73;5.97;;;;;;;7.32;81.80;101315.22;4904562;29;20043;-82
2021/10/25 09:38:50;;;;;;;7.20;5.20;;;;;;;7.36;81.78;101313.47;4917603;29;20196;-82
2021/10/25 09:49:35;;;;;;;10.17;5.57;;;;;;;7.98;80.94;101307.44;4924572;29;20461;-81
2021/10/25 09:52:04;;;;;;;8.10;5.83;;;;;;;8.02;82.05;101296.94;4918989;29;20058;-82
2021/10/25 09:54:35;;;;;;;8.80;5.50;;;;;;;8.18;80.05;101289.91;4902233;29;20044;-82
2021/10/25 09:57:07;;;;;;;9.53;5.67;;;;;;;8.36;78.57;101296.94;4905661;29;20541;-81
2021/10/25 09:59:49;;;;;;;8.30;5.20;;;;;;;8.48;80.10;101296.03;4913522;29;20035;-81
2021/10/25 10:02:17;;;;;;;7.32;6.18;;;;;;;8.76;77.29;101299.50;4898855;29;20054;-80
2021/10/25 10:04:45;;;;;;;9.90;5.35;;;;;;;8.98;77.67;101302.03;4928528;28;20062;-81
2021/10/25 10:07:16;;;;;;;8.82;5.50;;;;;;;9.27;74.11;101291.38;4928182;29;20047;-79
2021/10/25 10:09:45;;;;;;;8.20;5.10;;;;;;;9.36;72.35;101298.38;4916279;29;20066;-81
2021/10/25 10:12:20;;;;;;;7.75;5.63;;;;;;;9.39;70.29;101298.34;4901698;29;20102;-83
2021/10/25 10:14:51;;;;;;;10.10;5.85;;;;;;;9.55;72.43;101313.19;4917488;29;20039;-84
2021/10/25 10:17:30;;;;;;;9.68;4.75;;;;;;;9.78;72.11;101306.91;4924131;29;20043;-81
2021/10/25 10:20:04;;;;;;;8.93;4.93;;;;;;;10.00;71.37;101311.13;4928186;29;20078;-81
2021/10/25 10:22:31;;;;;;;;;;;;;;;10.06;70.56;101308.44;4934457;29;20047;-82
2021/10/25 10:24:59;;;;;;;7.43;5.15;;;;;;;10.28;67.79;101301.28;4902339;29;19956;-83
2021/10/25 10:27:26;;;;;;;8.18;5.13;;;;;;;10.36;67.30;101304.72;4933382;29;20502;-82
2021/10/25 10:29:54;;;;;;;7.65;5.88;;;;;;;10.47;67.45;101301.09;4917288;29;20055;-82
2021/10/25 10:32:21;;;;;;;7.93;5.30;;;;;;;10.46;66.81;101297.56;4934547;29;20043;-82
2021/10/25 10:34:50;;;;;;;9.27;7.10;;;;;;;10.57;65.94;101302.75;4902170;29;20043;-82
2021/10/25 10:37:25;;;;;;;9.02;5.55;;;;;;;10.59;66.97;101301.81;4910121;29;20083;-82
2021/10/25 10:40:12;;;;;;;65.38;44.50;;;;;;;10.63;64.09;101298.28;4902100;29;20059;-81
2021/10/25 10:42:43;;;;;;;11.00;7.88;;;;;;;10.77;65.11;101305.19;4937493;29;20058;-84
2021/10/25 10:45:11;;;;;;;8.05;4.90;;;;;;;10.77;64.55;101307.84;4886056;29;20110;-82
2021/10/25 10:47:56;;;;;;;9.02;5.78;;;;;;;10.89;65.49;101305.03;4926788;29;20070;-82
2021/10/25 10:50:40;;;;;;;6.78;4.80;;;;;;;11.10;64.18;101298.59;4920580;29;20051;-82
2021/10/25 10:53:11;;;;;;;5.80;4.53;;;;;;;11.30;64.51;101290.44;4925333;29;20631;-81
2021/10/25 10:55:41;;;;;;;9.32;5.20;;;;;;;11.47;65.03;101291.09;4887196;29;20101;-82
2021/10/25 10:58:22;;;;;;;6.72;4.97;;;;;;;11.72;63.11;101273.06;4918061;29;20078;-82
2021/10/25 11:01:00;;;;;;;5.63;5.13;;;;;;;11.81;61.66;101284.41;4938072;29;20103;-83
2021/10/25 11:03:30;;;;;;;7.80;4.70;;;;;;;11.85;61.70;101279.94;4920147;29;20078;-82
2021/10/25 11:06:04;;;;;;;7.00;4.63;;;;;;;11.83;62.01;101279.97;4921822;29;20046;-83
2021/10/25 11:08:43;;;;;;;8.98;5.20;;;;;;;11.87;62.71;101283.47;4920225;29;20102;-83
2021/10/25 11:11:16;;;;;;;6.28;4.15;;;;;;;11.90;61.54;101283.41;4919774;29;20043;-84
2021/10/25 11:13:47;;;;;;;5.43;4.63;;;;;;;11.94;60.79;101285.13;4917957;29;20051;-83
2021/10/25 11:16:21;;;;;;;7.90;4.40;;;;;;;11.92;61.89;101280.72;4919350;29;20055;-86
2021/10/25 11:18:55;;;;;;;8.52;5.32;;;;;;;12.02;61.42;101283.22;4921859;29;20039;-83
2021/10/25 11:21:36;;;;;;;6.32;4.72;;;;;;;12.17;61.16;101274.13;4918790;29;20074;-83
2021/10/25 11:24:11;;;;;;;6.07;4.28;;;;;;;12.22;59.71;101274.91;4917406;29;20043;-84
2021/10/25 11:26:46;;;;;;;13.40;5.00;;;;;;;12.22;61.75;101269.63;4907227;29;20590;-83
2021/10/25 11:29:14;;;;;;;10.70;4.22;;;;;;;12.31;60.65;101269.47;4901858;29;20140;-84
2021/10/25 11:31:44;;;;;;;7.07;4.40;;;;;;;12.27;60.73;101278.34;4918643;29;20051;-84
2021/10/25 11:34:21;;;;;;;5.45;4.40;;;;;;;12.33;61.12;101265.00;4897327;29;20081;-84
2021/10/25 11:37:09;;;;;;;6.38;4.53;;;;;;;12.30;61.48;101261.53;4920555;29;20597;-83
2021/10/25 11:39:42;;;;;;;6.53;4.22;;;;;;;12.20;61.34;101259.97;4901592;29;20056;-84
2021/10/25 11:42:42;;;;;;;5.65;3.97;;;;;;;12.14;61.37;101258.28;4934091;29;20052;-83
2021/10/25 11:45:13;;;;;;;5.63;3.85;;;;;;;12.10;61.95;101254.78;4888153;29;20138;-84
2021/10/25 11:47:43;;;;;;;7.47;4.50;;;;;;;12.05;62.57;101255.81;4905587;29;20392;-84
2021/10/25 11:50:14;;;;;;;6.85;4.25;;;;;;;11.93;63.09;101251.56;4920607;29;20071;-84
2021/10/25 11:52:49;;;;;;;6.05;4.03;;;;;;;11.75;62.30;101252.72;4907098;29;20055;-84
2021/10/25 11:55:19;;;;;;;5.97;4.07;;;;;;;11.71;62.94;101253.66;4904469;29;20134;-84
2021/10/25 11:57:54;;;;;;;9.30;4.93;;;;;;;11.63;63.04;101255.56;4917329;29;20054;-84
2021/10/25 12:00:21;;;;;;;8.98;5.25;;;;;;;11.57;63.56;101255.66;4916507;29;20058;-83
2021/10/25 12:02:48;;;;;;;6.43;4.20;;;;;;;11.52;64.48;101252.22;4902722;29;20143;-83
2021/10/25 12:05:24;;;;;;;7.03;4.47;;;;;;;11.50;65.61;101251.34;4885696;29;20047;-84
2021/10/25 12:07:53;;;;;;;7.93;4.85;;;;;;;11.41;65.88;101252.34;4901787;29;20088;-83
2021/10/25 12:10:22;;;;;;;6.07;4.40;;;;;;;11.42;65.22;101242.63;4902748;29;20054;-85
2021/10/25 12:12:53;;;;;;;7.70;4.32;;;;;;;11.39;65.81;101247.97;4902733;29;20043;-85
2021/10/25 12:15:21;;;;;;;6.78;4.40;;;;;;;11.35;65.38;101251.53;4916747;29;20051;-84
2021/10/25 12:17:49;;;;;;;7.15;4.93;;;;;;;11.36;66.17;101250.69;4890338;29;20049;-84
2021/10/25 12:20:27;;;;;;;6.85;4.57;;;;;;;11.42;66.58;101253.22;4885719;29;20474;-84
2021/10/25 12:23:17;;;;;;;6.15;3.83;;;;;;;11.32;66.14;101246.31;4892806;29;20071;-84
2021/10/25 12:25:45;;;;;;;7.78;4.35;;;;;;;11.31;67.46;101250.72;4904863;29;20114;-83
2021/10/25 12:28:20;;;;;;;5.03;4.03;;;;;;;11.33;66.55;101245.41;4920034;29;20526;-84
2021/10/25 12:30:52;;;;;;;6.95;4.97;;;;;;;11.39;66.10;101247.97;4905382;29;20047;-83
2021/10/25 12:33:22;;;;;;;5.40;3.85;;;;;;;11.31;66.58;101237.50;4931899;29;20043;-85
2021/10/25 12:35:50;;;;;;;8.10;5.18;;;;;;;11.26;65.68;101234.03;4917316;29;20048;-84
2021/10/25 12:38:21;;;;;;;5.25;4.20;;;;;;;11.21;66.74;101236.75;4900473;29;20114;-85
2021/10/25 12:40:53;;;;;;;6.53;4.43;;;;;;;11.12;67.08;101239.53;4894974;29;20086;-83
2021/10/25 12:43:22;;;;;;;5.25;3.67;;;;;;;11.12;67.57;101238.66;4900218;29;20048;-86
2021/10/25 12:46:00;;;;;;;7.95;4.15;;;;;;;11.02;67.80;101234.41;4921231;29;20102;-84
2021/10/25 12:48:27;;;;;;;7.28;4.25;;;;;;;10.95;69.22;101228.31;4919100;29;21035;-84
2021/10/25 12:51:02;;;;;;;5.78;3.97;;;;;;;10.98;67.99;101230.91;4936306;29;20043;-84
2021/10/25 12:53:31;;;;;;;7.97;5.03;;;;;;;11.05;69.91;101227.28;4900035;29;20388;-84
2021/10/25 12:55:59;;;;;;;4.90;4.03;;;;;;;10.96;69.49;101228.28;4917268;29;20043;-84
2021/10/25 12:58:26;;;;;;;6.40;3.47;;;;;;;10.90;69.73;101233.66;4930504;29;20517;-84
2021/10/25 13:00:53;;;;;;;5.82;3.75;;;;;;;10.90;70.82;101232.78;4917146;29;20078;-85